createdAt,value
2018-09-18T00:00:50.726Z,18.894043
2018-09-18T00:02:06.848Z,19.014893
2018-09-18T00:03:40.695Z,18.974609
2018-09-18T00:04:56.763Z,18.924255
2018-09-18T00:06:12.754Z,18.924255
2018-09-18T00:07:28.725Z,18.914185
2018-09-18T00:08:44.673Z,18.914185
2018-09-18T00:10:00.592Z,18.863831
2018-09-18T00:11:16.646Z,18.974609
2018-09-18T00:12:32.630Z,19.004822
2018-09-18T00:13:49.591Z,18.914185
2018-09-18T00:15:05.520Z,18.964539
2018-09-18T00:16:21.635Z,19.045105
2018-09-18T00:17:56.530Z,19.10553
2018-09-18T00:19:12.499Z,19.004822
2018-09-18T00:20:28.424Z,19.045105
2018-09-18T00:21:44.477Z,18.813477
2018-09-18T00:23:00.443Z,18.712769
2018-09-18T00:24:16.407Z,18.833618
2018-09-18T00:25:50.490Z,18.833618
2018-09-18T00:27:06.426Z,18.974609
2018-09-18T00:28:22.397Z,18.894043
2018-09-18T00:29:38.334Z,18.813477
2018-09-18T00:31:13.291Z,18.662415
2018-09-18T00:32:29.276Z,18.511353
2018-09-18T00:33:45.191Z,18.450928
2018-09-18T00:35:01.154Z,18.672485
2018-09-18T00:36:17.133Z,18.48114
2018-09-18T00:37:33.259Z,18.48114
2018-09-18T00:38:49.349Z,18.430786
2018-09-18T00:40:05.377Z,18.390503
2018-09-18T00:41:21.335Z,18.450928
2018-09-18T00:42:37.276Z,18.410645
2018-09-18T00:44:11.137Z,18.309937
2018-09-18T00:45:27.147Z,18.309937
2018-09-18T00:46:43.150Z,18.158875
2018-09-18T00:47:59.222Z,18.179016
2018-09-18T00:49:15.160Z,18.269653
2018-09-18T00:50:31.080Z,18.551636
2018-09-18T00:51:47.023Z,18.531494
2018-09-18T00:53:03.143Z,18.612061
2018-09-18T00:54:19.100Z,18.531494
2018-09-18T00:55:35.187Z,18.491211
2018-09-18T00:56:51.281Z,18.279724
2018-09-18T00:58:07.184Z,18.108521
2018-09-18T00:59:23.277Z,18.078308
2018-09-18T01:00:39.326Z,18.027954
2018-09-18T01:01:55.257Z,17.907104
2018-09-18T01:03:11.216Z,18.118591
2018-09-18T01:04:27.390Z,18.148804
2018-09-18T01:05:43.359Z,18.209229
2018-09-18T01:06:59.315Z,18.390503
2018-09-18T01:08:15.246Z,18.511353
2018-09-18T01:09:31.327Z,18.491211
2018-09-18T01:10:47.412Z,18.330078
2018-09-18T01:12:03.334Z,18.330078
2018-09-18T01:13:19.344Z,18.299866
2018-09-18T01:14:53.197Z,18.179016
2018-09-18T01:16:09.274Z,18.179016
2018-09-18T01:17:25.227Z,18.360291
2018-09-18T01:18:41.138Z,18.420715
2018-09-18T01:19:57.147Z,18.531494
2018-09-18T01:21:13.174Z,18.511353
2018-09-18T01:22:29.228Z,18.370361
2018-09-18T01:23:45.219Z,18.460999
2018-09-18T01:25:01.252Z,18.491211
2018-09-18T01:26:17.382Z,18.48114
2018-09-18T01:27:33.426Z,18.450928
2018-09-18T01:28:49.336Z,18.571777
2018-09-18T01:30:05.369Z,18.48114
2018-09-18T01:31:39.217Z,18.299866
2018-09-18T01:32:55.258Z,18.360291
2018-09-18T01:34:11.288Z,18.48114
2018-09-18T01:35:27.413Z,18.491211
2018-09-18T01:36:43.424Z,18.410645
2018-09-18T01:37:59.373Z,18.450928
2018-09-18T01:39:15.291Z,18.330078
2018-09-18T01:40:31.338Z,18.189087
2018-09-18T01:41:48.313Z,18.259583
2018-09-18T01:43:04.241Z,18.420715
2018-09-18T01:44:20.185Z,18.269653
2018-09-18T01:45:36.200Z,18.108521
2018-09-18T01:46:52.134Z,17.997742
2018-09-18T01:48:08.163Z,17.876892
2018-09-18T01:49:24.210Z,17.927246
2018-09-18T01:50:40.285Z,17.967529
2018-09-18T01:51:56.281Z,18.118591
2018-09-18T01:53:12.244Z,18.189087
2018-09-18T01:54:28.186Z,18.259583
2018-09-18T01:55:44.175Z,18.209229
2018-09-18T01:57:00.116Z,18.309937
2018-09-18T01:58:16.223Z,18.309937
2018-09-18T01:59:32.207Z,17.786255
2018-09-18T02:00:48.277Z,17.705688
2018-09-18T02:02:04.374Z,17.786255
2018-09-18T02:03:20.394Z,17.675476
2018-09-18T02:04:36.327Z,17.72583
2018-09-18T02:05:52.397Z,17.786255
2018-09-18T02:07:08.334Z,17.705688
2018-09-18T02:08:24.336Z,17.685547
2018-09-18T02:09:40.623Z,17.796326
2018-09-18T02:10:56.576Z,17.816467
2018-09-18T02:12:12.680Z,17.72583
2018-09-18T02:13:28.758Z,17.786255
2018-09-18T02:14:44.723Z,17.866821
2018-09-18T02:16:18.625Z,17.947388
2018-09-18T02:17:34.538Z,18.158875
2018-09-18T02:18:50.607Z,18.017883
2018-09-18T02:20:06.666Z,17.897034
2018-09-18T02:21:22.760Z,18.048096
2018-09-18T02:22:38.677Z,18.078308
2018-09-18T02:23:54.578Z,17.997742
2018-09-18T02:25:10.526Z,18.088379
2018-09-18T02:26:26.610Z,18.048096
2018-09-18T02:28:00.556Z,17.9776
2018-09-18T02:29:16.563Z,18.088379
2018-09-18T02:30:32.611Z,18.027954
2018-09-18T02:31:48.583Z,18.088379
2018-09-18T02:33:04.566Z,18.088379
2018-09-18T02:34:20.506Z,17.967529
2018-09-18T02:35:36.502Z,17.947388
2018-09-18T02:37:11.697Z,17.876892
2018-09-18T02:38:27.731Z,17.836609
2018-09-18T02:39:43.650Z,17.937317
2018-09-18T02:40:59.750Z,17.927246
2018-09-18T02:42:15.852Z,18.078308
2018-09-18T02:43:31.760Z,18.189087
2018-09-18T02:44:47.781Z,18.259583
2018-09-18T02:46:03.712Z,18.118591
2018-09-18T02:47:37.595Z,18.048096
2018-09-18T02:49:12.593Z,17.907104
2018-09-18T02:50:28.609Z,17.897034
2018-09-18T02:51:44.608Z,17.967529
2018-09-18T02:53:00.667Z,18.058167
2018-09-18T02:54:34.626Z,18.128662
2018-09-18T02:55:50.520Z,18.179016
2018-09-18T02:57:06.593Z,18.017883
2018-09-18T02:58:22.576Z,17.836609
2018-09-18T02:59:38.595Z,17.997742
2018-09-18T03:00:54.595Z,17.967529
2018-09-18T03:02:10.513Z,17.967529
2018-09-18T03:03:26.542Z,17.897034
2018-09-18T03:04:42.507Z,17.796326
2018-09-18T03:05:58.466Z,17.47406
2018-09-18T03:07:14.418Z,17.413635
2018-09-18T03:08:30.565Z,17.383423
2018-09-18T03:10:04.502Z,17.534485
2018-09-18T03:11:20.508Z,17.504272
2018-09-18T03:12:36.774Z,17.413635
2018-09-18T03:14:10.621Z,17.564697
2018-09-18T03:15:26.584Z,17.534485
2018-09-18T03:16:42.744Z,17.544556
2018-09-18T03:17:58.704Z,17.685547
2018-09-18T03:19:14.639Z,17.715759
2018-09-18T03:20:30.643Z,17.685547
2018-09-18T03:21:46.561Z,17.675476
2018-09-18T03:23:02.616Z,17.715759
2018-09-18T03:24:18.620Z,17.705688
2018-09-18T03:25:34.608Z,17.72583
2018-09-18T03:26:50.673Z,17.60498
2018-09-18T03:28:06.658Z,17.524414
2018-09-18T03:29:22.590Z,17.47406
2018-09-18T03:30:38.566Z,17.47406
2018-09-18T03:31:54.531Z,17.494202
2018-09-18T03:33:10.661Z,17.574768
2018-09-18T03:34:26.654Z,17.524414
2018-09-18T03:35:42.605Z,17.47406
2018-09-18T03:36:58.685Z,17.544556
2018-09-18T03:38:14.639Z,17.564697
2018-09-18T03:39:30.616Z,17.383423
2018-09-18T03:40:46.620Z,17.413635
2018-09-18T03:42:02.560Z,17.423706
2018-09-18T03:43:18.640Z,17.494202
2018-09-18T03:44:34.641Z,17.524414
2018-09-18T03:45:50.674Z,17.494202
2018-09-18T03:47:06.776Z,17.544556
2018-09-18T03:48:22.870Z,17.383423
2018-09-18T03:49:38.806Z,17.544556
2018-09-18T03:50:54.841Z,17.544556
2018-09-18T03:52:10.945Z,17.564697
2018-09-18T03:53:26.909Z,17.504272
2018-09-18T03:55:01.966Z,17.564697
2018-09-18T03:56:17.932Z,17.524414
2018-09-18T03:57:33.858Z,17.494202
2018-09-18T03:58:49.878Z,17.494202
2018-09-18T04:00:23.797Z,17.504272
2018-09-18T04:01:39.766Z,17.494202
2018-09-18T04:02:55.898Z,17.625122
2018-09-18T04:04:11.741Z,17.625122
2018-09-18T04:05:27.856Z,17.645264
2018-09-18T04:06:43.915Z,17.494202
2018-09-18T04:08:00.033Z,17.494202
2018-09-18T04:09:16.006Z,17.393494
2018-09-18T04:10:50.913Z,17.322998
2018-09-18T04:12:07.031Z,17.393494
2018-09-18T04:13:22.951Z,17.242432
2018-09-18T04:14:56.856Z,17.35321
2018-09-18T04:16:12.832Z,17.423706
2018-09-18T04:17:28.894Z,17.383423
2018-09-18T04:18:44.874Z,17.383423
2018-09-18T04:20:00.879Z,17.373352
2018-09-18T04:21:16.952Z,17.34314
2018-09-18T04:22:51.825Z,17.373352
2018-09-18T04:24:07.796Z,17.312927
2018-09-18T04:25:23.732Z,17.282715
2018-09-18T04:26:39.816Z,17.34314
2018-09-18T04:27:55.747Z,17.302856
2018-09-18T04:29:11.704Z,17.34314
2018-09-18T04:30:27.825Z,17.393494
2018-09-18T04:32:01.727Z,17.232361
2018-09-18T04:33:17.714Z,17.192078
2018-09-18T04:34:33.653Z,17.202148
2018-09-18T04:35:49.634Z,17.242432
2018-09-18T04:37:05.708Z,17.22229
2018-09-18T04:38:21.632Z,17.322998
2018-09-18T04:39:37.704Z,17.322998
2018-09-18T04:41:29.539Z,17.413635
2018-09-18T04:42:45.644Z,17.413635
2018-09-18T04:44:01.693Z,17.373352
2018-09-18T04:45:17.668Z,17.322998
2018-09-18T04:46:51.638Z,17.34314
2018-09-18T04:48:07.591Z,17.322998
2018-09-18T04:49:23.612Z,17.35321
2018-09-18T04:50:39.612Z,17.242432
2018-09-18T04:51:55.690Z,17.171936
2018-09-18T04:53:11.732Z,17.242432
2018-09-18T04:54:27.696Z,17.22229
2018-09-18T04:55:43.640Z,17.312927
2018-09-18T04:56:59.757Z,17.34314
2018-09-18T04:58:15.717Z,17.443848
2018-09-18T04:59:31.686Z,17.35321
2018-09-18T05:00:47.594Z,17.393494
2018-09-18T05:02:03.730Z,17.504272
2018-09-18T05:03:19.658Z,17.544556
2018-09-18T05:04:35.651Z,17.60498
2018-09-18T05:06:10.549Z,17.463989
2018-09-18T05:07:44.453Z,17.202148
2018-09-18T05:09:18.404Z,16.980591
2018-09-18T05:10:53.269Z,17.192078
2018-09-18T05:12:28.308Z,17.010803
2018-09-18T05:13:44.421Z,17.071228
2018-09-18T05:15:18.290Z,17.192078
2018-09-18T05:16:34.257Z,17.141724
2018-09-18T05:18:08.149Z,17.302856
2018-09-18T05:19:24.094Z,17.272644
2018-09-18T05:20:40.186Z,17.272644
2018-09-18T05:21:56.292Z,17.192078
2018-09-18T05:23:12.306Z,17.071228
2018-09-18T05:24:46.180Z,16.97052
2018-09-18T05:26:02.076Z,17.051086
2018-09-18T05:27:18.087Z,17.141724
2018-09-18T05:28:52.083Z,17.121582
2018-09-18T05:30:25.935Z,17.171936
2018-09-18T05:31:41.881Z,17.161865
2018-09-18T05:33:15.791Z,17.22229
2018-09-18T05:34:49.867Z,17.071228
2018-09-18T05:36:05.815Z,17.141724
2018-09-18T05:37:21.897Z,17.312927
2018-09-18T05:38:55.829Z,17.373352
2018-09-18T05:40:29.740Z,17.10144
2018-09-18T05:42:03.804Z,17.09137
2018-09-18T05:43:37.544Z,17.202148
2018-09-18T05:44:53.522Z,16.97052
2018-09-18T05:46:09.570Z,17.010803
2018-09-18T05:47:44.451Z,16.950378
2018-09-18T05:49:18.471Z,16.869812
2018-09-18T05:50:53.655Z,17.121582
2018-09-18T05:52:09.619Z,17.22229
2018-09-18T05:53:43.619Z,17.393494
2018-09-18T05:54:59.607Z,17.413635
2018-09-18T05:56:15.631Z,17.413635
2018-09-18T05:58:07.378Z,17.463989
2018-09-18T05:59:23.320Z,17.383423
2018-09-18T06:00:57.280Z,17.322998
2018-09-18T06:02:31.398Z,17.383423
2018-09-18T06:03:47.498Z,17.443848
2018-09-18T06:05:03.464Z,17.463989
2018-09-18T06:06:19.510Z,17.393494
2018-09-18T06:07:35.597Z,17.534485
2018-09-18T06:08:51.688Z,17.59491
2018-09-18T06:10:07.681Z,17.655334
2018-09-18T06:11:23.767Z,17.85675
2018-09-18T06:12:39.748Z,17.876892
2018-09-18T06:13:55.825Z,17.786255
2018-09-18T06:15:11.869Z,17.836609
2018-09-18T06:16:45.739Z,17.927246
2018-09-18T06:18:01.727Z,17.897034
2018-09-18T06:19:17.707Z,18.027954
2018-09-18T06:20:51.658Z,17.756042
2018-09-18T06:22:25.563Z,17.625122
2018-09-18T06:23:59.621Z,17.59491
2018-09-18T06:25:33.555Z,17.907104
2018-09-18T06:26:49.637Z,18.058167
2018-09-18T06:28:05.700Z,18.108521
2018-09-18T06:29:39.573Z,18.118591
2018-09-18T06:31:13.517Z,18.118591
2018-09-18T06:32:29.542Z,18.259583
2018-09-18T06:33:45.614Z,18.279724
2018-09-18T06:35:01.629Z,18.209229
2018-09-18T06:36:35.557Z,18.209229
2018-09-18T06:37:51.590Z,18.299866
2018-09-18T06:39:25.444Z,18.269653
2018-09-18T06:40:59.390Z,18.370361
2018-09-18T06:42:15.428Z,18.309937
2018-09-18T06:43:49.304Z,18.360291
2018-09-18T06:45:05.691Z,18.410645
2018-09-18T06:46:39.538Z,18.360291
2018-09-18T06:47:55.689Z,18.269653
2018-09-18T06:49:29.543Z,18.410645
2018-09-18T06:51:03.401Z,18.420715
2018-09-18T06:52:19.448Z,18.491211
2018-09-18T06:53:35.507Z,18.521423
2018-09-18T06:55:09.343Z,18.521423
2018-09-18T06:56:25.346Z,18.551636
2018-09-18T06:57:59.330Z,18.642273
2018-09-18T06:59:15.345Z,18.632202
2018-09-18T07:00:50.271Z,18.662415
2018-09-18T07:02:06.262Z,18.672485
2018-09-18T07:03:22.238Z,18.672485
2018-09-18T07:04:38.215Z,18.581848
2018-09-18T07:05:54.327Z,18.702698
2018-09-18T07:07:29.171Z,18.833618
2018-09-18T07:09:03.060Z,18.964539
2018-09-18T07:10:19.172Z,18.98468
2018-09-18T07:11:35.125Z,19.004822
2018-09-18T07:13:08.982Z,19.004822
2018-09-18T07:14:25.005Z,19.014893
2018-09-18T07:15:58.841Z,19.145813
2018-09-18T07:17:14.942Z,19.10553
2018-09-18T07:18:30.907Z,19.226379
2018-09-18T07:19:47.051Z,19.145813
2018-09-18T07:21:02.970Z,19.196167
2018-09-18T07:22:18.912Z,19.226379
2018-09-18T07:23:34.887Z,19.23645
2018-09-18T07:24:51.061Z,19.266663
2018-09-18T07:26:06.962Z,19.256592
2018-09-18T07:27:23.045Z,19.196167
2018-09-18T07:28:39.159Z,19.226379
2018-09-18T07:30:14.145Z,19.226379
2018-09-18T07:31:30.337Z,19.266663
2018-09-18T07:32:46.347Z,19.286804
2018-09-18T07:34:02.298Z,19.296875
2018-09-18T07:35:36.276Z,19.286804
2018-09-18T07:36:52.285Z,19.347229
2018-09-18T07:38:08.288Z,19.347229
2018-09-18T07:39:24.331Z,19.317017
2018-09-18T07:40:40.472Z,19.367371
2018-09-18T07:41:56.393Z,19.387512
2018-09-18T07:43:12.333Z,19.367371
2018-09-18T07:44:28.273Z,19.367371
2018-09-18T07:45:44.382Z,19.407654
2018-09-18T07:47:00.395Z,19.437866
2018-09-18T07:48:16.548Z,19.367371
2018-09-18T07:49:32.534Z,19.468079
2018-09-18T07:50:48.520Z,19.48822
2018-09-18T07:52:04.474Z,19.568787
2018-09-18T07:53:20.403Z,19.528503
2018-09-18T07:54:36.360Z,19.548645
2018-09-18T07:55:52.470Z,19.588928
2018-09-18T07:57:08.535Z,19.548645
2018-09-18T07:58:24.554Z,19.770203
2018-09-18T07:59:40.526Z,20.021973
2018-09-18T08:00:56.517Z,20.24353
2018-09-18T08:02:12.508Z,20.324097
2018-09-18T08:03:28.549Z,20.303955
2018-09-18T08:04:44.466Z,20.24353
2018-09-18T08:06:00.493Z,20.293884
2018-09-18T08:07:35.490Z,20.404663
2018-09-18T08:08:51.458Z,20.444946
2018-09-18T08:10:26.308Z,20.525513
2018-09-18T08:11:42.299Z,20.555725
2018-09-18T08:13:16.192Z,20.596008
2018-09-18T08:14:50.099Z,20.626221
2018-09-18T08:16:06.133Z,20.666504
2018-09-18T08:17:22.077Z,20.797424
2018-09-18T08:18:38.103Z,20.847778
2018-09-18T08:19:54.060Z,20.918274
2018-09-18T08:21:28.910Z,20.928345
2018-09-18T08:22:44.888Z,20.857849
2018-09-18T08:24:01.134Z,20.737
2018-09-18T08:25:17.239Z,20.575867
2018-09-18T08:26:50.951Z,20.737
2018-09-18T08:28:06.911Z,20.817566
2018-09-18T08:29:40.755Z,20.666504
2018-09-18T08:30:56.757Z,20.636292
2018-09-18T08:32:30.747Z,20.696716
2018-09-18T08:33:46.705Z,20.676575
2018-09-18T08:35:02.695Z,20.767212
2018-09-18T08:36:18.762Z,20.767212
2018-09-18T08:37:34.783Z,20.857849
2018-09-18T08:38:50.851Z,20.958557
2018-09-18T08:40:07.003Z,21.149902
2018-09-18T08:41:22.958Z,21.190186
2018-09-18T08:42:38.983Z,21.129761
2018-09-18T08:43:54.952Z,21.170044
2018-09-18T08:45:11.080Z,21.149902
2018-09-18T08:46:27.044Z,21.109619
2018-09-18T08:47:43.248Z,20.99884
2018-09-18T08:48:59.237Z,20.797424
2018-09-18T08:50:15.174Z,20.888062
2018-09-18T08:51:49.128Z,20.928345
2018-09-18T08:53:05.195Z,20.928345
2018-09-18T08:54:21.237Z,21.109619
2018-09-18T08:55:37.323Z,21.039124
2018-09-18T08:56:53.215Z,21.129761
2018-09-18T08:58:09.273Z,21.300964
2018-09-18T08:59:25.447Z,21.280823
2018-09-18T09:00:41.401Z,21.37146
2018-09-18T09:01:57.507Z,21.401672
2018-09-18T09:03:13.491Z,21.431885
2018-09-18T09:04:29.649Z,21.411743
2018-09-18T09:05:45.675Z,21.512451
2018-09-18T09:07:19.539Z,21.220398
2018-09-18T09:08:35.706Z,21.230469
2018-09-18T09:09:51.826Z,21.008911
2018-09-18T09:11:07.729Z,21.029053
2018-09-18T09:12:23.888Z,21.170044
2018-09-18T09:13:39.869Z,21.280823
2018-09-18T09:15:13.791Z,21.079407
2018-09-18T09:16:29.800Z,21.300964
2018-09-18T09:17:45.823Z,21.220398
2018-09-18T09:19:01.919Z,20.958557
2018-09-18T09:20:17.905Z,21.139832
2018-09-18T09:21:33.864Z,21.049194
2018-09-18T09:23:08.842Z,21.149902
2018-09-18T09:24:24.881Z,21.472168
2018-09-18T09:25:40.868Z,21.542664
2018-09-18T09:27:14.845Z,21.562805
2018-09-18T09:28:30.929Z,21.562805
2018-09-18T09:29:47.142Z,21.593018
2018-09-18T09:31:03.084Z,21.512451
2018-09-18T09:32:36.921Z,21.633301
2018-09-18T09:33:53.065Z,21.814575
2018-09-18T09:35:09.093Z,21.834717
2018-09-18T09:36:25.141Z,21.875
2018-09-18T09:37:41.187Z,21.834717
2018-09-18T09:38:57.352Z,21.915283
2018-09-18T09:40:13.313Z,21.844788
2018-09-18T09:41:29.387Z,21.723938
2018-09-18T09:42:45.360Z,21.905212
2018-09-18T09:44:01.380Z,22.026062
2018-09-18T09:45:17.405Z,22.056274
2018-09-18T09:46:33.476Z,21.955566
2018-09-18T09:47:49.528Z,21.965637
2018-09-18T09:49:05.503Z,21.965637
2018-09-18T09:50:21.443Z,22.076416
2018-09-18T09:51:37.539Z,22.116699
2018-09-18T09:52:53.542Z,22.076416
2018-09-18T09:54:09.507Z,22.156982
2018-09-18T09:55:25.615Z,22.146912
2018-09-18T09:56:41.763Z,22.096558
2018-09-18T09:57:57.694Z,22.217407
2018-09-18T09:59:13.692Z,22.338257
2018-09-18T10:00:29.773Z,22.297974
2018-09-18T10:01:45.929Z,22.227478
2018-09-18T10:03:01.975Z,22.368469
2018-09-18T10:04:17.963Z,22.368469
2018-09-18T10:05:33.953Z,22.459106
2018-09-18T10:06:49.979Z,22.680664
2018-09-18T10:08:05.901Z,22.771301
2018-09-18T10:09:39.853Z,22.63031
2018-09-18T10:10:56.096Z,22.610168
2018-09-18T10:12:12.023Z,22.650452
2018-09-18T10:13:28.071Z,22.50946
2018-09-18T10:14:44.076Z,22.650452
2018-09-18T10:16:00.058Z,22.801514
2018-09-18T10:17:16.026Z,22.922363
2018-09-18T10:18:49.868Z,23.023071
2018-09-18T10:20:05.880Z,22.88208
2018-09-18T10:21:39.755Z,22.892151
2018-09-18T10:22:55.936Z,23.073425
2018-09-18T10:24:12.009Z,23.204346
2018-09-18T10:25:27.959Z,23.38562
2018-09-18T10:26:44.207Z,23.395691
2018-09-18T10:28:00.348Z,23.234558
2018-09-18T10:29:16.288Z,23.063354
2018-09-18T10:30:50.343Z,22.811584
2018-09-18T10:32:06.329Z,22.741089
2018-09-18T10:33:22.300Z,22.700806
2018-09-18T10:34:38.284Z,22.781372
2018-09-18T10:36:12.157Z,22.50946
2018-09-18T10:37:28.290Z,22.549744
2018-09-18T10:38:44.319Z,22.579956
2018-09-18T10:40:00.406Z,22.610168
2018-09-18T10:41:16.556Z,22.610168
2018-09-18T10:42:32.525Z,22.610168
2018-09-18T10:43:49.834Z,22.590027
2018-09-18T10:45:23.713Z,22.620239
2018-09-18T10:46:39.661Z,22.549744
2018-09-18T10:47:55.647Z,22.519531
2018-09-18T10:49:11.715Z,22.549744
2018-09-18T10:50:27.715Z,22.50946
2018-09-18T10:51:43.735Z,22.328186
2018-09-18T10:52:59.756Z,22.24762
2018-09-18T10:54:33.737Z,22.297974
2018-09-18T10:55:49.698Z,22.277832
2018-09-18T10:57:05.835Z,22.297974
2018-09-18T10:58:39.677Z,22.297974
2018-09-18T10:59:55.817Z,22.146912
2018-09-18T11:01:30.676Z,22.187195
2018-09-18T11:02:46.654Z,22.207336
2018-09-18T11:04:20.529Z,22.227478
2018-09-18T11:05:36.615Z,22.277832
2018-09-18T11:07:11.616Z,22.187195
2018-09-18T11:08:27.622Z,22.116699
2018-09-18T11:09:43.614Z,22.096558
2018-09-18T11:10:59.594Z,22.156982
2018-09-18T11:12:15.578Z,22.187195
2018-09-18T11:13:31.574Z,22.156982
2018-09-18T11:15:06.452Z,22.056274
2018-09-18T11:16:22.329Z,21.985779
2018-09-18T11:17:56.367Z,21.854858
2018-09-18T11:19:12.313Z,21.844788
2018-09-18T11:20:28.479Z,21.885071
2018-09-18T11:22:02.415Z,21.915283
2018-09-18T11:23:36.276Z,21.915283
2018-09-18T11:24:52.304Z,21.885071
2018-09-18T11:26:08.292Z,21.854858
2018-09-18T11:27:24.322Z,21.804504
2018-09-18T11:28:40.446Z,21.885071
2018-09-18T11:29:56.372Z,21.905212
2018-09-18T11:31:12.681Z,21.854858
2018-09-18T11:32:28.569Z,21.784363
2018-09-18T11:34:02.558Z,21.774292
2018-09-18T11:35:18.636Z,21.834717
2018-09-18T11:36:34.649Z,21.814575
2018-09-18T11:37:50.653Z,21.885071
2018-09-18T11:39:06.824Z,21.965637
2018-09-18T11:40:22.813Z,21.965637
2018-09-18T11:41:38.956Z,21.985779
2018-09-18T11:42:54.991Z,21.985779
2018-09-18T11:44:11.035Z,22.00592
2018-09-18T11:45:27.146Z,22.00592
2018-09-18T11:46:43.295Z,22.036133
2018-09-18T11:47:59.114Z,22.076416
2018-09-18T11:49:15.211Z,22.136841
2018-09-18T11:50:32.245Z,22.136841
2018-09-18T11:51:48.312Z,22.156982
2018-09-18T11:53:04.285Z,22.146912
2018-09-18T11:54:21.386Z,22.136841
2018-09-18T11:55:55.307Z,22.096558
2018-09-18T11:57:11.374Z,22.076416
2018-09-18T11:58:27.373Z,22.076416
2018-09-18T11:59:43.370Z,22.116699
2018-09-18T12:00:59.476Z,22.177124
2018-09-18T12:02:15.484Z,22.187195
2018-09-18T12:03:49.410Z,22.217407
2018-09-18T12:05:05.422Z,22.24762
2018-09-18T12:06:21.484Z,22.227478
2018-09-18T12:07:55.415Z,22.24762
2018-09-18T12:09:11.397Z,22.24762
2018-09-18T12:10:27.531Z,22.277832
2018-09-18T12:11:43.510Z,22.24762
2018-09-18T12:13:00.139Z,22.277832
2018-09-18T12:14:16.151Z,22.328186
2018-09-18T12:15:51.126Z,22.338257
2018-09-18T12:17:07.234Z,22.338257
2018-09-18T12:18:23.194Z,22.398682
2018-09-18T12:19:39.331Z,22.368469
2018-09-18T12:20:55.276Z,22.398682
2018-09-18T12:22:11.412Z,22.408752
2018-09-18T12:23:27.471Z,22.398682
2018-09-18T12:24:43.498Z,22.438965
2018-09-18T12:26:17.397Z,22.398682
2018-09-18T12:27:51.480Z,22.358398
2018-09-18T12:29:07.652Z,22.277832
2018-09-18T12:30:23.701Z,22.227478
2018-09-18T12:31:39.713Z,22.207336
2018-09-18T12:33:13.583Z,22.177124
2018-09-18T12:34:29.710Z,22.136841
2018-09-18T12:35:45.769Z,22.066345
2018-09-18T12:37:01.716Z,22.096558
2018-09-18T12:38:17.846Z,22.036133
2018-09-18T12:39:33.831Z,22.076416
2018-09-18T12:40:49.915Z,22.116699
2018-09-18T12:42:06.154Z,22.146912
2018-09-18T12:43:22.135Z,22.116699
2018-09-18T12:44:38.227Z,22.116699
2018-09-18T12:45:54.263Z,22.136841
2018-09-18T12:47:10.229Z,22.116699
2018-09-18T12:48:26.290Z,22.146912
2018-09-18T12:50:00.568Z,22.136841
2018-09-18T12:51:16.203Z,22.136841
2018-09-18T12:52:32.234Z,22.146912
2018-09-18T12:53:48.411Z,22.136841
2018-09-18T12:55:04.364Z,22.156982
2018-09-18T12:56:20.441Z,22.217407
2018-09-18T12:57:54.303Z,22.25769
2018-09-18T12:59:10.418Z,22.277832
2018-09-18T13:00:26.420Z,22.277832
2018-09-18T13:01:42.422Z,22.217407
2018-09-18T13:03:16.444Z,22.156982
2018-09-18T13:04:32.490Z,22.177124
2018-09-18T13:06:06.500Z,22.217407
2018-09-18T13:10:23.283Z,22.408752
2018-09-18T13:11:39.281Z,22.438965
2018-09-18T13:12:55.281Z,22.519531
2018-09-18T13:14:11.523Z,22.63031
2018-09-18T13:15:27.240Z,22.710876
2018-09-18T13:17:01.245Z,22.771301
2018-09-18T13:38:42.564Z,26.044312
2018-09-18T13:39:58.607Z,27.001038
2018-09-18T13:41:14.777Z,25.711975
2018-09-18T13:42:30.693Z,26.296082
2018-09-18T13:43:46.707Z,27.897339
2018-09-18T13:45:02.692Z,28.995056
2018-09-18T13:46:18.935Z,28.864136
2018-09-18T13:47:52.749Z,27.504578
2018-09-18T13:49:27.617Z,31.281128
2018-09-18T13:50:43.859Z,32.268066
2018-09-18T13:52:00.078Z,33.416138
2018-09-18T13:53:16.026Z,33.345642
2018-09-18T13:54:49.867Z,33.597412
2018-09-18T13:56:06.135Z,32.902527
2018-09-18T13:57:22.268Z,34.131165
2018-09-18T13:58:38.318Z,34.846191
